sensor_id;sensor_type;location;lat;lon;timestamp;P1;durP1;ratioP1;P2;durP2;ratioP2
11082;SDS011;5595;50.186;8.468;2022-08-14T00:02:09;5.68;;;4.22;;
11082;SDS011;5595;50.186;8.468;2022-08-14T00:04:36;4.63;;;4.15;;
11082;SDS011;5595;50.186;8.468;2022-08-14T00:07:03;7.50;;;4.47;;
11082;SDS011;5595;50.186;8.468;2022-08-14T00:09:31;4.35;;;3.95;;
11082;SDS011;5595;50.186;8.468;2022-08-14T00:11:59;5.18;;;4.45;;
11082;SDS011;5595;50.186;8.468;2022-08-14T00:14:27;4.95;;;4.35;;
11082;SDS011;5595;50.186;8.468;2022-08-14T00:16:54;8.65;;;4.30;;
11082;SDS011;5595;50.186;8.468;2022-08-14T00:19:21;5.38;;;4.20;;
11082;SDS011;5595;50.186;8.468;2022-08-14T00:21:49;7.35;;;3.88;;
11082;SDS011;5595;50.186;8.468;2022-08-14T00:24:17;4.93;;;4.07;;
11082;SDS011;5595;50.186;8.468;2022-08-14T00:26:44;4.22;;;3.92;;
11082;SDS011;5595;50.186;8.468;2022-08-14T00:29:13;5.07;;;4.68;;
11082;SDS011;5595;50.186;8.468;2022-08-14T00:31:40;4.90;;;4.50;;
11082;SDS011;5595;50.186;8.468;2022-08-14T00:34:07;5.25;;;4.18;;
11082;SDS011;5595;50.186;8.468;2022-08-14T00:36:34;4.82;;;4.43;;
11082;SDS011;5595;50.186;8.468;2022-08-14T00:39:01;4.57;;;4.18;;
11082;SDS011;5595;50.186;8.468;2022-08-14T00:41:29;5.10;;;4.60;;
11082;SDS011;5595;50.186;8.468;2022-08-14T00:43:57;6.63;;;4.57;;
11082;SDS011;5595;50.186;8.468;2022-08-14T00:46:25;4.70;;;4.10;;
11082;SDS011;5595;50.186;8.468;2022-08-14T00:48:52;5.60;;;4.45;;
11082;SDS011;5595;50.186;8.468;2022-08-14T00:51:19;5.25;;;4.75;;
11082;SDS011;5595;50.186;8.468;2022-08-14T00:53:46;5.68;;;4.80;;
11082;SDS011;5595;50.186;8.468;2022-08-14T00:56:15;4.85;;;4.00;;
11082;SDS011;5595;50.186;8.468;2022-08-14T00:58:42;5.55;;;4.15;;
11082;SDS011;5595;50.186;8.468;2022-08-14T01:01:11;5.47;;;4.60;;
11082;SDS011;5595;50.186;8.468;2022-08-14T01:03:42;5.40;;;4.90;;
11082;SDS011;5595;50.186;8.468;2022-08-14T01:06:10;5.50;;;5.00;;
11082;SDS011;5595;50.186;8.468;2022-08-14T01:08:41;5.60;;;5.10;;
11082;SDS011;5595;50.186;8.468;2022-08-14T01:11:11;5.55;;;5.00;;
11082;SDS011;5595;50.186;8.468;2022-08-14T01:13:40;5.68;;;5.20;;
11082;SDS011;5595;50.186;8.468;2022-08-14T01:16:11;7.97;;;5.60;;
11082;SDS011;5595;50.186;8.468;2022-08-14T01:18:42;6.13;;;5.63;;
11082;SDS011;5595;50.186;8.468;2022-08-14T01:21:30;7.38;;;5.32;;
11082;SDS011;5595;50.186;8.468;2022-08-14T01:24:00;5.85;;;5.45;;
11082;SDS011;5595;50.186;8.468;2022-08-14T01:26:28;8.43;;;5.45;;
11082;SDS011;5595;50.186;8.468;2022-08-14T01:28:56;5.97;;;5.47;;
11082;SDS011;5595;50.186;8.468;2022-08-14T01:31:25;5.53;;;5.05;;
11082;SDS011;5595;50.186;8.468;2022-08-14T01:33:54;6.05;;;5.30;;
11082;SDS011;5595;50.186;8.468;2022-08-14T01:36:23;9.25;;;5.03;;
11082;SDS011;5595;50.186;8.468;2022-08-14T01:38:53;6.82;;;6.10;;
11082;SDS011;5595;50.186;8.468;2022-08-14T01:41:22;5.88;;;5.38;;
11082;SDS011;5595;50.186;8.468;2022-08-14T01:43:52;6.63;;;5.90;;
11082;SDS011;5595;50.186;8.468;2022-08-14T01:46:23;6.80;;;6.15;;
11082;SDS011;5595;50.186;8.468;2022-08-14T01:48:50;6.72;;;6.13;;
11082;SDS011;5595;50.186;8.468;2022-08-14T01:51:18;7.30;;;6.25;;
11082;SDS011;5595;50.186;8.468;2022-08-14T01:53:47;6.90;;;6.30;;
11082;SDS011;5595;50.186;8.468;2022-08-14T01:56:20;7.80;;;5.93;;
11082;SDS011;5595;50.186;8.468;2022-08-14T01:58:57;6.60;;;6.03;;
11082;SDS011;5595;50.186;8.468;2022-08-14T02:01:24;6.82;;;6.28;;
11082;SDS011;5595;50.186;8.468;2022-08-14T02:03:52;7.95;;;6.40;;
11082;SDS011;5595;50.186;8.468;2022-08-14T02:06:18;6.90;;;6.30;;
11082;SDS011;5595;50.186;8.468;2022-08-14T02:08:46;10.32;;;6.38;;
11082;SDS011;5595;50.186;8.468;2022-08-14T02:11:13;6.53;;;5.90;;
11082;SDS011;5595;50.186;8.468;2022-08-14T02:13:48;7.22;;;6.55;;
11082;SDS011;5595;50.186;8.468;2022-08-14T02:16:23;6.53;;;5.97;;
11082;SDS011;5595;50.186;8.468;2022-08-14T02:18:53;6.85;;;6.15;;
11082;SDS011;5595;50.186;8.468;2022-08-14T02:21:21;8.00;;;6.78;;
11082;SDS011;5595;50.186;8.468;2022-08-14T02:23:49;7.30;;;6.15;;
11082;SDS011;5595;50.186;8.468;2022-08-14T02:26:19;6.82;;;6.13;;
11082;SDS011;5595;50.186;8.468;2022-08-14T02:28:49;7.03;;;6.50;;
11082;SDS011;5595;50.186;8.468;2022-08-14T02:31:19;7.10;;;6.50;;
11082;SDS011;5595;50.186;8.468;2022-08-14T02:33:46;8.07;;;6.45;;
11082;SDS011;5595;50.186;8.468;2022-08-14T02:36:13;7.03;;;6.32;;
11082;SDS011;5595;50.186;8.468;2022-08-14T02:38:41;6.97;;;6.45;;
11082;SDS011;5595;50.186;8.468;2022-08-14T02:41:09;7.03;;;6.53;;
11082;SDS011;5595;50.186;8.468;2022-08-14T02:43:38;7.28;;;6.35;;
11082;SDS011;5595;50.186;8.468;2022-08-14T02:46:10;7.47;;;6.28;;
11082;SDS011;5595;50.186;8.468;2022-08-14T02:48:40;7.05;;;6.10;;
11082;SDS011;5595;50.186;8.468;2022-08-14T02:51:09;6.97;;;6.15;;
11082;SDS011;5595;50.186;8.468;2022-08-14T02:53:39;7.30;;;6.63;;
11082;SDS011;5595;50.186;8.468;2022-08-14T02:56:12;6.82;;;6.20;;
11082;SDS011;5595;50.186;8.468;2022-08-14T02:58:42;6.85;;;6.25;;
11082;SDS011;5595;50.186;8.468;2022-08-14T03:01:15;6.68;;;5.97;;
11082;SDS011;5595;50.186;8.468;2022-08-14T03:03:46;7.85;;;6.88;;
11082;SDS011;5595;50.186;8.468;2022-08-14T03:06:15;6.90;;;6.20;;
11082;SDS011;5595;50.186;8.468;2022-08-14T03:08:43;6.95;;;6.35;;
11082;SDS011;5595;50.186;8.468;2022-08-14T03:11:13;7.57;;;6.75;;
11082;SDS011;5595;50.186;8.468;2022-08-14T03:13:41;8.43;;;6.85;;
11082;SDS011;5595;50.186;8.468;2022-08-14T03:16:10;7.75;;;6.78;;
11082;SDS011;5595;50.186;8.468;2022-08-14T03:18:40;6.70;;;6.10;;
11082;SDS011;5595;50.186;8.468;2022-08-14T03:21:13;7.72;;;6.75;;
11082;SDS011;5595;50.186;8.468;2022-08-14T03:23:43;7.03;;;6.43;;
11082;SDS011;5595;50.186;8.468;2022-08-14T03:26:13;8.00;;;7.03;;
11082;SDS011;5595;50.186;8.468;2022-08-14T03:28:42;8.35;;;7.55;;
11082;SDS011;5595;50.186;8.468;2022-08-14T03:31:11;8.00;;;7.32;;
11082;SDS011;5595;50.186;8.468;2022-08-14T03:33:42;7.65;;;7.05;;
11082;SDS011;5595;50.186;8.468;2022-08-14T03:36:10;7.45;;;6.78;;
11082;SDS011;5595;50.186;8.468;2022-08-14T03:38:41;8.23;;;7.55;;
11082;SDS011;5595;50.186;8.468;2022-08-14T03:41:10;7.53;;;6.93;;
11082;SDS011;5595;50.186;8.468;2022-08-14T03:43:40;8.20;;;7.50;;
11082;SDS011;5595;50.186;8.468;2022-08-14T03:46:11;8.68;;;7.70;;
11082;SDS011;5595;50.186;8.468;2022-08-14T03:48:44;8.02;;;7.32;;
11082;SDS011;5595;50.186;8.468;2022-08-14T03:51:11;8.00;;;7.38;;
11082;SDS011;5595;50.186;8.468;2022-08-14T03:53:43;10.25;;;7.85;;
11082;SDS011;5595;50.186;8.468;2022-08-14T03:56:13;9.05;;;7.60;;
11082;SDS011;5595;50.186;8.468;2022-08-14T03:58:42;8.68;;;7.88;;
11082;SDS011;5595;50.186;8.468;2022-08-14T04:01:11;8.00;;;7.30;;
11082;SDS011;5595;50.186;8.468;2022-08-14T04:03:41;7.75;;;7.13;;
11082;SDS011;5595;50.186;8.468;2022-08-14T04:06:09;7.75;;;7.18;;
11082;SDS011;5595;50.186;8.468;2022-08-14T04:08:37;6.97;;;6.22;;
11082;SDS011;5595;50.186;8.468;2022-08-14T04:11:05;9.98;;;7.38;;
11082;SDS011;5595;50.186;8.468;2022-08-14T04:13:42;7.90;;;7.30;;
11082;SDS011;5595;50.186;8.468;2022-08-14T04:16:14;7.57;;;6.88;;
11082;SDS011;5595;50.186;8.468;2022-08-14T04:18:44;7.75;;;7.05;;
11082;SDS011;5595;50.186;8.468;2022-08-14T04:21:15;7.78;;;7.00;;
11082;SDS011;5595;50.186;8.468;2022-08-14T04:23:42;7.82;;;7.13;;
11082;SDS011;5595;50.186;8.468;2022-08-14T04:26:12;8.27;;;7.47;;
11082;SDS011;5595;50.186;8.468;2022-08-14T04:28:41;8.43;;;7.72;;
11082;SDS011;5595;50.186;8.468;2022-08-14T04:31:09;8.15;;;7.45;;
11082;SDS011;5595;50.186;8.468;2022-08-14T04:33:36;8.45;;;7.65;;
11082;SDS011;5595;50.186;8.468;2022-08-14T04:36:05;7.90;;;7.20;;
11082;SDS011;5595;50.186;8.468;2022-08-14T04:38:34;8.13;;;7.32;;
11082;SDS011;5595;50.186;8.468;2022-08-14T04:41:18;7.97;;;7.28;;
11082;SDS011;5595;50.186;8.468;2022-08-14T04:44:12;7.85;;;7.20;;
11082;SDS011;5595;50.186;8.468;2022-08-14T04:46:42;10.85;;;6.70;;
11082;SDS011;5595;50.186;8.468;2022-08-14T04:49:31;7.68;;;7.05;;
11082;SDS011;5595;50.186;8.468;2022-08-14T04:52:00;7.72;;;7.03;;
11082;SDS011;5595;50.186;8.468;2022-08-14T04:54:30;8.60;;;6.82;;
11082;SDS011;5595;50.186;8.468;2022-08-14T04:56:57;7.60;;;6.90;;
11082;SDS011;5595;50.186;8.468;2022-08-14T04:59:27;8.40;;;7.32;;
11082;SDS011;5595;50.186;8.468;2022-08-14T05:01:54;8.20;;;6.63;;
11082;SDS011;5595;50.186;8.468;2022-08-14T05:04:22;8.35;;;7.63;;
11082;SDS011;5595;50.186;8.468;2022-08-14T05:06:50;8.23;;;7.60;;
11082;SDS011;5595;50.186;8.468;2022-08-14T05:09:18;9.15;;;7.88;;
11082;SDS011;5595;50.186;8.468;2022-08-14T05:11:50;8.00;;;7.25;;
11082;SDS011;5595;50.186;8.468;2022-08-14T05:14:18;8.15;;;7.35;;
11082;SDS011;5595;50.186;8.468;2022-08-14T05:16:46;7.68;;;6.85;;
11082;SDS011;5595;50.186;8.468;2022-08-14T05:19:16;7.22;;;6.72;;
11082;SDS011;5595;50.186;8.468;2022-08-14T05:21:46;7.75;;;7.05;;
11082;SDS011;5595;50.186;8.468;2022-08-14T05:24:13;8.23;;;7.43;;
11082;SDS011;5595;50.186;8.468;2022-08-14T05:26:42;7.78;;;7.15;;
11082;SDS011;5595;50.186;8.468;2022-08-14T05:29:12;7.63;;;6.70;;
11082;SDS011;5595;50.186;8.468;2022-08-14T05:31:40;11.90;;;7.72;;
11082;SDS011;5595;50.186;8.468;2022-08-14T05:34:07;7.35;;;6.68;;
11082;SDS011;5595;50.186;8.468;2022-08-14T05:36:35;7.50;;;6.80;;
11082;SDS011;5595;50.186;8.468;2022-08-14T05:39:07;8.13;;;7.43;;
11082;SDS011;5595;50.186;8.468;2022-08-14T05:41:40;8.18;;;7.47;;
11082;SDS011;5595;50.186;8.468;2022-08-14T05:44:09;8.90;;;8.10;;
11082;SDS011;5595;50.186;8.468;2022-08-14T05:46:38;8.63;;;7.47;;
11082;SDS011;5595;50.186;8.468;2022-08-14T05:49:05;7.07;;;6.57;;
11082;SDS011;5595;50.186;8.468;2022-08-14T05:51:32;7.55;;;6.88;;
11082;SDS011;5595;50.186;8.468;2022-08-14T05:53:59;8.32;;;7.32;;
11082;SDS011;5595;50.186;8.468;2022-08-14T05:56:33;10.05;;;6.90;;
11082;SDS011;5595;50.186;8.468;2022-08-14T05:59:13;10.18;;;7.38;;
11082;SDS011;5595;50.186;8.468;2022-08-14T06:01:40;10.10;;;7.18;;
11082;SDS011;5595;50.186;8.468;2022-08-14T06:04:07;8.13;;;7.07;;
11082;SDS011;5595;50.186;8.468;2022-08-14T06:06:37;7.40;;;6.70;;
11082;SDS011;5595;50.186;8.468;2022-08-14T06:09:05;8.10;;;6.97;;
11082;SDS011;5595;50.186;8.468;2022-08-14T06:11:33;11.13;;;7.50;;
11082;SDS011;5595;50.186;8.468;2022-08-14T06:14:03;8.98;;;8.15;;
11082;SDS011;5595;50.186;8.468;2022-08-14T06:16:32;7.65;;;6.95;;
11082;SDS011;5595;50.186;8.468;2022-08-14T06:19:03;8.13;;;7.45;;
11082;SDS011;5595;50.186;8.468;2022-08-14T06:21:32;8.13;;;7.38;;
11082;SDS011;5595;50.186;8.468;2022-08-14T06:24:00;7.95;;;7.25;;
11082;SDS011;5595;50.186;8.468;2022-08-14T06:26:28;7.45;;;6.75;;
11082;SDS011;5595;50.186;8.468;2022-08-14T06:28:55;6.82;;;6.15;;
11082;SDS011;5595;50.186;8.468;2022-08-14T06:31:22;7.70;;;6.85;;
11082;SDS011;5595;50.186;8.468;2022-08-14T06:33:50;7.78;;;7.07;;
11082;SDS011;5595;50.186;8.468;2022-08-14T06:36:19;9.32;;;7.35;;
11082;SDS011;5595;50.186;8.468;2022-08-14T06:38:46;6.80;;;6.18;;
11082;SDS011;5595;50.186;8.468;2022-08-14T06:41:18;9.50;;;6.80;;
11082;SDS011;5595;50.186;8.468;2022-08-14T06:43:47;7.97;;;7.15;;
11082;SDS011;5595;50.186;8.468;2022-08-14T06:46:14;7.70;;;6.60;;
11082;SDS011;5595;50.186;8.468;2022-08-14T06:48:42;7.75;;;6.80;;
11082;SDS011;5595;50.186;8.468;2022-08-14T06:51:11;7.15;;;6.10;;
11082;SDS011;5595;50.186;8.468;2022-08-14T06:53:38;7.35;;;6.60;;
11082;SDS011;5595;50.186;8.468;2022-08-14T06:56:05;7.30;;;6.50;;
11082;SDS011;5595;50.186;8.468;2022-08-14T06:58:32;10.05;;;6.25;;
11082;SDS011;5595;50.186;8.468;2022-08-14T07:01:01;7.03;;;5.93;;
11082;SDS011;5595;50.186;8.468;2022-08-14T07:03:47;7.30;;;6.55;;
11082;SDS011;5595;50.186;8.468;2022-08-14T07:06:33;7.35;;;6.70;;
11082;SDS011;5595;50.186;8.468;2022-08-14T07:09:00;6.88;;;6.28;;
11082;SDS011;5595;50.186;8.468;2022-08-14T07:11:29;6.45;;;5.85;;
11082;SDS011;5595;50.186;8.468;2022-08-14T07:13:56;8.82;;;6.38;;
11082;SDS011;5595;50.186;8.468;2022-08-14T07:16:24;6.93;;;5.90;;
11082;SDS011;5595;50.186;8.468;2022-08-14T07:18:52;7.28;;;6.55;;
11082;SDS011;5595;50.186;8.468;2022-08-14T07:21:22;6.93;;;6.28;;
11082;SDS011;5595;50.186;8.468;2022-08-14T07:23:50;7.47;;;6.78;;
11082;SDS011;5595;50.186;8.468;2022-08-14T07:26:17;6.63;;;5.93;;
11082;SDS011;5595;50.186;8.468;2022-08-14T07:28:45;7.20;;;6.50;;
11082;SDS011;5595;50.186;8.468;2022-08-14T07:31:16;6.47;;;5.97;;
11082;SDS011;5595;50.186;8.468;2022-08-14T07:33:43;9.07;;;6.43;;
11082;SDS011;5595;50.186;8.468;2022-08-14T07:36:15;6.57;;;5.50;;
11082;SDS011;5595;50.186;8.468;2022-08-14T07:38:42;6.68;;;6.18;;
11082;SDS011;5595;50.186;8.468;2022-08-14T07:41:14;9.30;;;7.00;;
11082;SDS011;5595;50.186;8.468;2022-08-14T07:43:42;7.22;;;6.63;;
11082;SDS011;5595;50.186;8.468;2022-08-14T07:46:15;6.70;;;6.20;;
11082;SDS011;5595;50.186;8.468;2022-08-14T07:48:45;7.63;;;6.97;;
11082;SDS011;5595;50.186;8.468;2022-08-14T07:51:15;6.90;;;6.28;;
11082;SDS011;5595;50.186;8.468;2022-08-14T07:53:44;6.57;;;6.07;;
11082;SDS011;5595;50.186;8.468;2022-08-14T07:56:16;7.38;;;6.72;;
11082;SDS011;5595;50.186;8.468;2022-08-14T07:58:49;6.78;;;6.15;;
11082;SDS011;5595;50.186;8.468;2022-08-14T08:01:16;6.78;;;6.25;;
11082;SDS011;5595;50.186;8.468;2022-08-14T08:03:45;7.35;;;6.18;;
11082;SDS011;5595;50.186;8.468;2022-08-14T08:06:15;6.90;;;5.85;;
11082;SDS011;5595;50.186;8.468;2022-08-14T08:08:42;6.20;;;5.65;;
11082;SDS011;5595;50.186;8.468;2022-08-14T08:11:16;6.90;;;6.35;;
11082;SDS011;5595;50.186;8.468;2022-08-14T08:13:44;6.13;;;5.53;;
11082;SDS011;5595;50.186;8.468;2022-08-14T08:16:13;6.22;;;5.47;;
11082;SDS011;5595;50.186;8.468;2022-08-14T08:18:45;6.35;;;5.75;;
11082;SDS011;5595;50.186;8.468;2022-08-14T08:21:13;6.95;;;5.75;;
11082;SDS011;5595;50.186;8.468;2022-08-14T08:23:41;7.15;;;6.38;;
11082;SDS011;5595;50.186;8.468;2022-08-14T08:26:11;6.10;;;5.50;;
11082;SDS011;5595;50.186;8.468;2022-08-14T08:28:39;6.25;;;5.47;;
11082;SDS011;5595;50.186;8.468;2022-08-14T08:31:06;7.32;;;5.72;;
11082;SDS011;5595;50.186;8.468;2022-08-14T08:33:36;6.93;;;5.50;;
11082;SDS011;5595;50.186;8.468;2022-08-14T08:36:08;8.02;;;5.68;;
11082;SDS011;5595;50.186;8.468;2022-08-14T08:38:38;6.65;;;6.05;;
11082;SDS011;5595;50.186;8.468;2022-08-14T08:41:13;5.75;;;5.10;;
11082;SDS011;5595;50.186;8.468;2022-08-14T08:43:42;6.05;;;5.60;;
11082;SDS011;5595;50.186;8.468;2022-08-14T08:46:12;5.80;;;5.40;;
11082;SDS011;5595;50.186;8.468;2022-08-14T08:48:44;5.72;;;5.32;;
11082;SDS011;5595;50.186;8.468;2022-08-14T08:51:18;5.90;;;5.20;;
11082;SDS011;5595;50.186;8.468;2022-08-14T08:53:55;5.43;;;4.97;;
11082;SDS011;5595;50.186;8.468;2022-08-14T08:56:35;5.93;;;5.43;;
11082;SDS011;5595;50.186;8.468;2022-08-14T08:59:16;5.57;;;5.13;;
11082;SDS011;5595;50.186;8.468;2022-08-14T09:01:48;5.65;;;5.15;;
11082;SDS011;5595;50.186;8.468;2022-08-14T09:04:16;5.90;;;5.32;;
11082;SDS011;5595;50.186;8.468;2022-08-14T09:06:44;5.78;;;5.28;;
11082;SDS011;5595;50.186;8.468;2022-08-14T09:09:22;5.53;;;5.03;;
11082;SDS011;5595;50.186;8.468;2022-08-14T09:11:51;5.22;;;4.72;;
11082;SDS011;5595;50.186;8.468;2022-08-14T09:14:20;9.50;;;5.43;;
11082;SDS011;5595;50.186;8.468;2022-08-14T09:16:48;6.07;;;5.45;;
11082;SDS011;5595;50.186;8.468;2022-08-14T09:19:17;5.60;;;5.20;;
11082;SDS011;5595;50.186;8.468;2022-08-14T09:21:45;6.18;;;5.05;;
11082;SDS011;5595;50.186;8.468;2022-08-14T09:24:13;8.95;;;5.10;;
11082;SDS011;5595;50.186;8.468;2022-08-14T09:26:41;5.13;;;4.75;;
11082;SDS011;5595;50.186;8.468;2022-08-14T09:29:09;5.72;;;5.15;;
11082;SDS011;5595;50.186;8.468;2022-08-14T09:31:39;5.60;;;5.07;;
11082;SDS011;5595;50.186;8.468;2022-08-14T09:34:12;5.25;;;4.82;;
11082;SDS011;5595;50.186;8.468;2022-08-14T09:36:50;4.82;;;4.32;;
11082;SDS011;5595;50.186;8.468;2022-08-14T09:39:27;7.22;;;5.18;;
11082;SDS011;5595;50.186;8.468;2022-08-14T09:42:15;6.50;;;5.90;;
11082;SDS011;5595;50.186;8.468;2022-08-14T09:44:54;7.57;;;5.80;;
11082;SDS011;5595;50.186;8.468;2022-08-14T09:47:43;7.10;;;4.75;;
11082;SDS011;5595;50.186;8.468;2022-08-14T09:50:19;6.07;;;5.57;;
11082;SDS011;5595;50.186;8.468;2022-08-14T09:52:49;5.70;;;5.30;;
11082;SDS011;5595;50.186;8.468;2022-08-14T09:55:19;5.35;;;4.90;;
11082;SDS011;5595;50.186;8.468;2022-08-14T09:57:48;5.70;;;4.97;;
11082;SDS011;5595;50.186;8.468;2022-08-14T10:00:16;5.85;;;4.88;;
11082;SDS011;5595;50.186;8.468;2022-08-14T10:02:52;5.15;;;4.80;;
11082;SDS011;5595;50.186;8.468;2022-08-14T10:05:28;7.40;;;5.40;;
11082;SDS011;5595;50.186;8.468;2022-08-14T10:07:57;11.55;;;5.10;;
11082;SDS011;5595;50.186;8.468;2022-08-14T10:10:26;4.78;;;4.47;;
11082;SDS011;5595;50.186;8.468;2022-08-14T10:12:54;6.32;;;4.88;;
11082;SDS011;5595;50.186;8.468;2022-08-14T10:15:22;7.82;;;4.78;;
11082;SDS011;5595;50.186;8.468;2022-08-14T10:18:03;8.52;;;4.53;;
11082;SDS011;5595;50.186;8.468;2022-08-14T10:20:34;7.93;;;5.38;;
11082;SDS011;5595;50.186;8.468;2022-08-14T10:23:09;5.18;;;4.78;;
11082;SDS011;5595;50.186;8.468;2022-08-14T10:25:42;6.50;;;5.15;;
11082;SDS011;5595;50.186;8.468;2022-08-14T10:28:10;5.13;;;4.75;;
11082;SDS011;5595;50.186;8.468;2022-08-14T10:30:41;5.03;;;4.53;;
11082;SDS011;5595;50.186;8.468;2022-08-14T10:33:23;5.00;;;4.60;;
11082;SDS011;5595;50.186;8.468;2022-08-14T10:35:52;4.00;;;3.70;;
11082;SDS011;5595;50.186;8.468;2022-08-14T10:38:28;4.32;;;4.03;;
11082;SDS011;5595;50.186;8.468;2022-08-14T10:41:08;5.88;;;4.30;;
11082;SDS011;5595;50.186;8.468;2022-08-14T10:43:37;6.13;;;4.40;;
11082;SDS011;5595;50.186;8.468;2022-08-14T10:46:10;5.00;;;4.60;;
11082;SDS011;5595;50.186;8.468;2022-08-14T10:48:40;4.47;;;4.07;;
11082;SDS011;5595;50.186;8.468;2022-08-14T10:51:22;5.68;;;4.88;;
11082;SDS011;5595;50.186;8.468;2022-08-14T10:53:52;4.88;;;4.50;;
11082;SDS011;5595;50.186;8.468;2022-08-14T10:56:27;6.47;;;4.53;;
11082;SDS011;5595;50.186;8.468;2022-08-14T10:58:59;4.45;;;4.13;;
11082;SDS011;5595;50.186;8.468;2022-08-14T11:01:29;4.15;;;3.80;;
11082;SDS011;5595;50.186;8.468;2022-08-14T11:03:58;6.00;;;2.97;;
11082;SDS011;5595;50.186;8.468;2022-08-14T11:06:26;2.85;;;2.65;;
11082;SDS011;5595;50.186;8.468;2022-08-14T11:08:54;3.50;;;3.20;;
11082;SDS011;5595;50.186;8.468;2022-08-14T11:11:22;3.65;;;3.45;;
11082;SDS011;5595;50.186;8.468;2022-08-14T11:13:53;4.78;;;4.05;;
11082;SDS011;5595;50.186;8.468;2022-08-14T11:16:21;5.03;;;4.20;;
11082;SDS011;5595;50.186;8.468;2022-08-14T11:18:50;4.32;;;3.58;;
11082;SDS011;5595;50.186;8.468;2022-08-14T11:21:20;3.92;;;3.63;;
11082;SDS011;5595;50.186;8.468;2022-08-14T11:23:47;5.32;;;3.92;;
11082;SDS011;5595;50.186;8.468;2022-08-14T11:26:16;4.15;;;3.47;;
11082;SDS011;5595;50.186;8.468;2022-08-14T11:28:44;5.07;;;3.85;;
11082;SDS011;5595;50.186;8.468;2022-08-14T11:31:13;4.63;;;3.78;;
11082;SDS011;5595;50.186;8.468;2022-08-14T11:33:43;4.40;;;4.03;;
11082;SDS011;5595;50.186;8.468;2022-08-14T11:36:15;4.20;;;3.83;;
11082;SDS011;5595;50.186;8.468;2022-08-14T11:38:44;3.70;;;3.45;;
11082;SDS011;5595;50.186;8.468;2022-08-14T11:41:13;4.90;;;3.92;;
11082;SDS011;5595;50.186;8.468;2022-08-14T11:43:41;4.28;;;3.97;;
11082;SDS011;5595;50.186;8.468;2022-08-14T11:46:10;4.72;;;4.03;;
11082;SDS011;5595;50.186;8.468;2022-08-14T11:48:49;5.07;;;4.07;;
11082;SDS011;5595;50.186;8.468;2022-08-14T11:51:18;6.07;;;4.00;;
11082;SDS011;5595;50.186;8.468;2022-08-14T11:53:52;4.28;;;3.95;;
11082;SDS011;5595;50.186;8.468;2022-08-14T11:56:21;7.18;;;4.47;;
11082;SDS011;5595;50.186;8.468;2022-08-14T11:58:50;4.18;;;3.67;;
11082;SDS011;5595;50.186;8.468;2022-08-14T12:01:23;4.47;;;4.07;;
11082;SDS011;5595;50.186;8.468;2022-08-14T12:03:52;4.90;;;3.65;;
11082;SDS011;5595;50.186;8.468;2022-08-14T12:06:23;6.40;;;3.95;;
11082;SDS011;5595;50.186;8.468;2022-08-14T12:08:54;3.92;;;3.63;;
11082;SDS011;5595;50.186;8.468;2022-08-14T12:11:21;4.10;;;3.80;;
11082;SDS011;5595;50.186;8.468;2022-08-14T12:13:48;4.13;;;3.83;;
11082;SDS011;5595;50.186;8.468;2022-08-14T12:16:15;4.10;;;3.80;;
11082;SDS011;5595;50.186;8.468;2022-08-14T12:18:45;3.75;;;3.45;;
11082;SDS011;5595;50.186;8.468;2022-08-14T12:21:15;4.03;;;3.80;;
11082;SDS011;5595;50.186;8.468;2022-08-14T12:23:44;3.85;;;3.55;;
11082;SDS011;5595;50.186;8.468;2022-08-14T12:26:15;3.63;;;3.10;;
11082;SDS011;5595;50.186;8.468;2022-08-14T12:28:47;4.15;;;3.45;;
11082;SDS011;5595;50.186;8.468;2022-08-14T12:31:16;4.80;;;3.60;;
11082;SDS011;5595;50.186;8.468;2022-08-14T12:33:54;3.85;;;3.55;;
11082;SDS011;5595;50.186;8.468;2022-08-14T12:36:23;5.82;;;3.70;;
11082;SDS011;5595;50.186;8.468;2022-08-14T12:38:54;3.92;;;3.55;;
11082;SDS011;5595;50.186;8.468;2022-08-14T12:41:24;5.15;;;3.67;;
11082;SDS011;5595;50.186;8.468;2022-08-14T12:43:54;7.57;;;2.92;;
11082;SDS011;5595;50.186;8.468;2022-08-14T12:46:23;5.10;;;3.08;;
11082;SDS011;5595;50.186;8.468;2022-08-14T12:48:52;4.32;;;2.90;;
11082;SDS011;5595;50.186;8.468;2022-08-14T12:51:20;4.55;;;2.70;;
11082;SDS011;5595;50.186;8.468;2022-08-14T12:53:51;2.70;;;2.50;;
11082;SDS011;5595;50.186;8.468;2022-08-14T12:56:19;2.85;;;2.65;;
11082;SDS011;5595;50.186;8.468;2022-08-14T12:58:52;3.00;;;2.80;;
11082;SDS011;5595;50.186;8.468;2022-08-14T13:01:21;11.13;;;3.45;;
11082;SDS011;5595;50.186;8.468;2022-08-14T13:03:49;5.53;;;3.17;;
11082;SDS011;5595;50.186;8.468;2022-08-14T13:06:17;2.92;;;2.72;;
11082;SDS011;5595;50.186;8.468;2022-08-14T13:08:47;3.45;;;2.80;;
11082;SDS011;5595;50.186;8.468;2022-08-14T13:11:15;3.78;;;2.92;;
11082;SDS011;5595;50.186;8.468;2022-08-14T13:13:43;3.63;;;2.78;;
11082;SDS011;5595;50.186;8.468;2022-08-14T13:16:12;2.78;;;2.53;;
11082;SDS011;5595;50.186;8.468;2022-08-14T13:18:40;4.07;;;2.70;;
11082;SDS011;5595;50.186;8.468;2022-08-14T13:21:11;9.15;;;2.53;;
11082;SDS011;5595;50.186;8.468;2022-08-14T13:23:39;2.78;;;2.58;;
11082;SDS011;5595;50.186;8.468;2022-08-14T13:26:10;2.40;;;2.25;;
11082;SDS011;5595;50.186;8.468;2022-08-14T13:28:39;2.42;;;2.33;;
11082;SDS011;5595;50.186;8.468;2022-08-14T13:31:07;3.65;;;2.22;;
11082;SDS011;5595;50.186;8.468;2022-08-14T13:33:39;2.22;;;2.03;;
11082;SDS011;5595;50.186;8.468;2022-08-14T13:36:07;3.53;;;2.20;;
11082;SDS011;5595;50.186;8.468;2022-08-14T13:38:35;2.78;;;2.50;;
11082;SDS011;5595;50.186;8.468;2022-08-14T13:41:02;4.03;;;2.33;;
11082;SDS011;5595;50.186;8.468;2022-08-14T13:43:30;2.70;;;2.50;;
11082;SDS011;5595;50.186;8.468;2022-08-14T13:45:58;3.03;;;2.40;;
11082;SDS011;5595;50.186;8.468;2022-08-14T13:48:24;2.67;;;2.38;;
11082;SDS011;5595;50.186;8.468;2022-08-14T13:50:53;2.25;;;2.00;;
11082;SDS011;5595;50.186;8.468;2022-08-14T13:53:22;2.63;;;2.42;;
11082;SDS011;5595;50.186;8.468;2022-08-14T13:55:51;2.13;;;2.03;;
11082;SDS011;5595;50.186;8.468;2022-08-14T13:58:19;4.45;;;2.20;;
11082;SDS011;5595;50.186;8.468;2022-08-14T14:00:49;5.90;;;2.60;;
11082;SDS011;5595;50.186;8.468;2022-08-14T14:03:19;2.83;;;2.58;;
11082;SDS011;5595;50.186;8.468;2022-08-14T14:05:49;3.15;;;2.50;;
11082;SDS011;5595;50.186;8.468;2022-08-14T14:08:21;2.53;;;2.33;;
11082;SDS011;5595;50.186;8.468;2022-08-14T14:10:49;3.90;;;2.60;;
11082;SDS011;5595;50.186;8.468;2022-08-14T14:13:20;2.92;;;2.63;;
11082;SDS011;5595;50.186;8.468;2022-08-14T14:15:48;3.97;;;2.78;;
11082;SDS011;5595;50.186;8.468;2022-08-14T14:18:16;4.25;;;2.88;;
11082;SDS011;5595;50.186;8.468;2022-08-14T14:20:49;2.67;;;2.47;;
11082;SDS011;5595;50.186;8.468;2022-08-14T14:23:17;4.80;;;2.58;;
11082;SDS011;5595;50.186;8.468;2022-08-14T14:25:46;3.28;;;2.72;;
11082;SDS011;5595;50.186;8.468;2022-08-14T14:28:14;6.75;;;3.30;;
11082;SDS011;5595;50.186;8.468;2022-08-14T14:30:46;3.67;;;3.30;;
11082;SDS011;5595;50.186;8.468;2022-08-14T14:33:13;5.53;;;4.55;;
11082;SDS011;5595;50.186;8.468;2022-08-14T14:35:44;4.53;;;4.13;;
11082;SDS011;5595;50.186;8.468;2022-08-14T14:38:12;4.63;;;3.20;;
11082;SDS011;5595;50.186;8.468;2022-08-14T14:40:41;3.00;;;2.80;;
11082;SDS011;5595;50.186;8.468;2022-08-14T14:43:13;3.15;;;2.95;;
11082;SDS011;5595;50.186;8.468;2022-08-14T14:45:42;3.35;;;2.83;;
11082;SDS011;5595;50.186;8.468;2022-08-14T14:48:11;3.20;;;2.90;;
11082;SDS011;5595;50.186;8.468;2022-08-14T14:50:39;3.20;;;2.90;;
11082;SDS011;5595;50.186;8.468;2022-08-14T14:53:07;4.43;;;3.10;;
11082;SDS011;5595;50.186;8.468;2022-08-14T14:55:38;3.17;;;2.97;;
11082;SDS011;5595;50.186;8.468;2022-08-14T14:58:10;3.00;;;2.80;;
11082;SDS011;5595;50.186;8.468;2022-08-14T15:00:45;6.78;;;3.20;;
11082;SDS011;5595;50.186;8.468;2022-08-14T15:03:13;2.92;;;2.72;;
11082;SDS011;5595;50.186;8.468;2022-08-14T15:05:40;3.45;;;3.13;;
11082;SDS011;5595;50.186;8.468;2022-08-14T15:08:09;4.72;;;3.30;;
11082;SDS011;5595;50.186;8.468;2022-08-14T15:10:36;4.03;;;3.72;;
11082;SDS011;5595;50.186;8.468;2022-08-14T15:13:03;3.88;;;3.47;;
11082;SDS011;5595;50.186;8.468;2022-08-14T15:15:33;3.75;;;3.40;;
11082;SDS011;5595;50.186;8.468;2022-08-14T15:18:01;3.50;;;3.20;;